Time;durP1;ratioP1;P1;durP2;ratioP2;P2;SDS_P1;SDS_P2;PMS_P1;PMS_P2;Temp;Humidity;BMP_temperature;BMP_pressure;BME280_temperature;BME280_humidity;BME280_pressure;Samples;Min_cycle;Max_cycle;Signal;HPM_P1;HPM_P2
2023/06/07 00:02:19;;;;;;;10.40;5.07;;;20.50;60.70;;;19.84;50.77;100876.44;4931688;29;20123;-77
2023/06/07 00:04:48;;;;;;;9.65;5.70;;;20.40;60.80;;;19.80;50.58;100886.16;4930957;29;20044;-80
2023/06/07 00:07:15;;;;;;;11.40;5.32;;;20.40;60.80;;;19.74;51.13;100882.59;4939124;28;20540;-79
2023/06/07 00:09:42;;;;;;;13.02;6.28;;;20.30;61.40;;;19.72;51.13;100892.06;4942397;28;20126;-79
2023/06/07 00:12:11;;;;;;;12.30;5.03;;;20.30;61.30;;;19.68;50.88;100885.56;4931243;29;20052;-78
2023/06/07 00:14:38;;;;;;;11.68;5.40;;;20.30;61.40;;;19.65;50.97;100888.78;4960790;23;20134;-78
2023/06/07 00:17:05;;;;;;;9.75;5.53;;;20.20;61.40;;;19.61;51.44;100884.94;4986470;28;20042;-78
2023/06/07 00:19:34;;;;;;;9.38;5.38;;;20.20;61.70;;;19.59;51.51;100887.09;4996056;28;20569;-78
2023/06/07 00:22:01;;;;;;;9.18;5.68;;;20.10;61.60;;;19.58;51.60;100897.09;4995480;28;20126;-76
2023/06/07 00:24:29;;;;;;;12.68;5.82;;;20.10;61.90;;;19.59;51.13;100887.09;4981643;28;20110;-78
2023/06/07 00:26:56;;;;;;;14.35;6.05;;;20.10;61.70;;;19.60;50.78;100897.66;4968931;28;20511;-77
2023/06/07 00:29:23;;;;;;;10.50;5.32;;;20.10;61.50;;;19.61;51.19;100893.06;4977359;28;20258;-77
2023/06/07 00:31:50;;;;;;;8.98;5.20;;;20.10;61.50;;;19.63;51.17;100894.44;4977182;28;20129;-77
2023/06/07 00:34:17;;;;;;;11.23;5.90;;;20.10;61.80;;;19.63;51.37;100888.22;4972367;28;20055;-77
2023/06/07 00:36:47;;;;;;;12.68;5.80;;;20.10;61.80;;;19.64;50.96;100887.16;4979791;28;20054;-77
2023/06/07 00:39:14;;;;;;;12.73;5.55;;;20.20;61.30;;;19.66;51.59;100887.69;4977395;28;20035;-77
2023/06/07 00:41:42;;;;;;;15.15;5.43;;;20.20;62.10;;;19.66;51.02;100882.28;4968349;28;20504;-78
2023/06/07 00:44:11;;;;;;;9.77;5.50;;;20.20;61.80;;;19.67;51.69;100889.34;4982223;28;20400;-78
2023/06/07 00:46:39;;;;;;;8.55;5.25;;;20.20;62.20;;;19.66;51.74;100885.78;4972074;28;20053;-78
2023/06/07 00:49:06;;;;;;;9.55;5.45;;;20.20;62.40;;;19.67;51.51;100887.44;4976770;28;20070;-77
2023/06/07 00:51:33;;;;;;;11.02;5.90;;;20.20;62.20;;;19.68;51.79;100878.25;4994155;28;20157;-78
2023/06/07 00:54:05;;;;;;;12.50;5.95;;;20.20;62.40;;;19.70;51.53;100886.09;4986482;28;20092;-78
2023/06/07 00:56:35;;;;;;;10.20;5.75;;;20.20;62.20;;;19.71;51.14;100891.22;4978277;28;20077;-78
2023/06/07 00:59:03;;;;;;;15.07;5.85;;;20.20;62.00;;;19.72;51.29;100883.94;4971161;28;20059;-77
2023/06/07 01:01:33;;;;;;;11.80;5.30;;;20.20;62.00;;;19.72;50.89;100889.38;4953323;28;20098;-78
2023/06/07 01:04:01;;;;;;;13.37;5.60;;;20.20;61.80;;;19.72;50.95;100884.78;4966997;28;20421;-77
2023/06/07 01:06:29;;;;;;;10.60;5.18;;;20.20;61.60;;;19.73;50.97;100896.41;4974516;28;20319;-77
2023/06/07 01:08:56;;;;;;;12.48;5.32;;;20.30;61.50;;;19.74;50.62;100879.09;4967317;28;20049;-77
2023/06/07 01:11:26;;;;;;;14.85;5.60;;;20.30;61.80;;;19.74;50.15;100879.09;4977007;28;20046;-78
2023/06/07 01:13:55;;;;;;;10.00;5.15;;;20.30;61.20;;;19.73;50.47;100877.47;4981388;28;20042;-77
2023/06/07 01:16:25;;;;;;;13.55;5.70;;;20.30;61.40;;;19.73;50.27;100880.16;4973968;28;20054;-77
2023/06/07 01:18:53;;;;;;;11.55;5.45;;;20.20;61.00;;;19.73;50.02;100878.28;4960084;28;20138;-78
2023/06/07 01:21:22;;;;;;;10.80;5.20;;;20.20;61.10;;;19.72;49.85;100873.13;4968090;28;20039;-78
2023/06/07 01:23:50;;;;;;;14.35;5.20;;;20.20;60.50;;;19.71;49.65;100872.28;4966849;28;20047;-77
2023/06/07 01:26:18;;;;;;;12.98;5.22;;;20.20;60.50;;;19.71;49.66;100868.78;4971659;28;20073;-78
2023/06/07 01:28:46;;;;;;;11.15;4.90;;;20.20;60.30;;;19.72;49.31;100870.44;4985676;28;20043;-77
2023/06/07 01:31:15;;;;;;;12.25;5.57;;;20.20;60.20;;;19.71;49.47;100863.34;4970037;28;20039;-78
2023/06/07 01:33:43;;;;;;;14.73;4.90;;;20.20;60.20;;;19.71;49.13;100861.47;4977216;28;20069;-77
2023/06/07 01:36:14;;;;;;;9.93;5.10;;;20.20;60.00;;;19.74;49.68;100868.25;4980572;28;20042;-77
2023/06/07 01:38:46;;;;;;;11.20;5.32;;;20.30;60.20;;;19.73;49.46;100861.22;4984507;28;20058;-77
2023/06/07 01:41:17;;;;;;;9.93;4.80;;;20.30;60.00;;;19.72;49.33;100867.72;4977092;28;20042;-78
2023/06/07 01:43:48;;;;;;;12.80;4.80;;;20.20;59.80;;;19.70;48.81;100864.44;4978004;28;20050;-77
2023/06/07 01:46:17;;;;;;;12.07;5.32;;;20.20;59.70;;;19.70;48.89;100869.84;4981747;28;20116;-78
2023/06/07 01:48:44;;;;;;;11.10;5.28;;;20.20;59.60;;;19.70;48.88;100862.53;4976485;28;20050;-78
2023/06/07 01:51:11;;;;;;;15.07;5.22;;;20.20;59.70;;;19.69;48.80;100858.22;4969979;28;20694;-78
2023/06/07 01:53:39;;;;;;;10.80;4.72;;;20.20;59.60;;;19.70;48.90;100861.72;4971855;28;20140;-77
2023/06/07 01:56:14;;;;;;;10.20;5.28;;;20.20;59.60;;;19.69;48.79;100866.34;4975919;28;20070;-78
2023/06/07 01:58:56;;;;;;;12.68;4.55;;;20.20;59.50;;;19.67;49.01;100867.69;4972714;28;20039;-77
2023/06/07 02:01:32;;;;;;;12.15;5.25;;;20.20;59.60;;;19.67;48.76;100863.09;4973764;28;20085;-78
2023/06/07 02:04:03;;;;;;;12.93;5.00;;;20.20;59.40;;;19.68;48.73;100856.59;4974609;28;20066;-77
2023/06/07 02:06:34;;;;;;;11.13;4.32;;;20.20;59.40;;;19.67;48.88;100851.44;4979593;28;20054;-78
2023/06/07 02:09:07;;;;;;;11.30;4.88;;;20.20;59.40;;;19.66;48.93;100847.91;4978403;28;20049;-77
2023/06/07 02:11:39;;;;;;;10.13;5.07;;;20.20;59.40;;;19.65;48.78;100853.59;4990387;28;20053;-77
2023/06/07 02:14:09;;;;;;;12.93;5.13;;;20.20;59.60;;;19.66;48.71;100860.63;4983049;28;20474;-78
2023/06/07 02:16:37;;;;;;;11.45;4.50;;;20.20;59.20;;;19.63;48.80;100847.63;4977328;28;20404;-78
2023/06/07 02:19:09;;;;;;;11.48;4.88;;;20.20;59.30;;;19.62;48.50;100859.50;4983184;28;20034;-78
2023/06/07 02:21:50;;;;;;;12.70;4.88;;;20.20;59.10;;;19.63;48.62;100850.34;4971309;28;20063;-78
2023/06/07 02:24:19;;;;;;;12.98;5.30;;;20.20;59.20;;;19.60;48.87;100853.56;4985290;28;20058;-77
2023/06/07 02:26:46;;;;;;;10.02;4.80;;;20.10;59.40;;;19.56;48.59;100848.63;4975377;28;20702;-78
2023/06/07 02:29:15;;;;;;;10.15;5.07;;;20.10;59.10;;;19.58;48.66;100855.69;4977468;28;20567;-77
2023/06/07 02:31:42;;;;;;;9.88;4.85;;;20.10;59.30;;;19.58;48.79;100853.81;4970164;28;20053;-78
2023/06/07 02:34:10;;;;;;;9.98;4.55;;;20.10;59.20;;;19.56;48.46;100850.53;4978489;28;20049;-77
2023/06/07 02:36:39;;;;;;;10.77;4.90;;;20.10;59.30;;;19.56;48.73;100859.44;4975548;28;20431;-77
2023/06/07 02:39:07;;;;;;;9.75;5.05;;;20.10;59.30;;;19.55;48.79;100852.41;4975284;28;20046;-77
2023/06/07 02:41:34;;;;;;;11.57;5.15;;;20.10;59.30;;;19.52;48.47;100850.25;4970435;28;20035;-77
2023/06/07 02:44:02;;;;;;;11.45;5.15;;;20.10;59.30;;;19.50;48.71;100841.56;4976801;28;20130;-78
2023/06/07 02:46:30;;;;;;;10.57;5.00;;;20.00;59.10;;;19.49;48.62;100839.94;4978837;28;20126;-77
2023/06/07 02:48:58;;;;;;;10.32;5.18;;;20.00;59.00;;;19.46;48.44;100840.44;4984219;28;20513;-77
2023/06/07 02:51:26;;;;;;;13.77;4.97;;;20.00;59.10;;;19.46;48.32;100839.63;4972157;28;20043;-78
2023/06/07 02:53:54;;;;;;;9.75;4.90;;;20.00;59.10;;;19.45;48.91;100843.44;4976391;28;20057;-77
2023/06/07 02:56:24;;;;;;;9.27;5.05;;;20.00;59.30;;;19.44;48.70;100844.50;4994695;28;20049;-77
2023/06/07 02:58:51;;;;;;;11.43;5.20;;;20.00;59.20;;;19.41;48.79;100843.13;4976762;28;20050;-77
2023/06/07 03:01:19;;;;;;;9.98;5.07;;;20.00;59.30;;;19.41;48.57;100842.31;4968831;28;20050;-77
2023/06/07 03:03:52;;;;;;;8.60;5.00;;;20.00;59.20;;;19.40;48.63;100849.63;4970063;28;20415;-77
2023/06/07 03:06:20;;;;;;;12.43;5.63;;;20.00;59.30;;;19.41;48.76;100848.53;4978800;28;20141;-78
2023/06/07 03:08:47;;;;;;;14.60;5.70;;;20.00;59.50;;;19.41;48.96;100853.94;4986974;28;20459;-77
2023/06/07 03:11:22;;;;;;;10.07;5.22;;;20.00;59.50;;;19.40;48.81;100849.63;4968942;28;20062;-77
2023/06/07 03:13:51;;;;;;;12.07;5.80;;;19.90;59.50;;;19.37;48.88;100850.13;4973863;28;20057;-77
2023/06/07 03:16:24;;;;;;;10.57;5.30;;;19.90;59.50;;;19.35;48.88;100840.66;4977315;28;20050;-77
2023/06/07 03:18:57;;;;;;;11.98;5.40;;;19.90;59.50;;;19.33;49.01;100840.13;4971155;28;20551;-78
2023/06/07 03:21:26;;;;;;;12.07;5.28;;;19.90;59.60;;;19.30;48.81;100842.25;4992082;28;20057;-77
2023/06/07 03:23:55;;;;;;;12.20;5.50;;;19.80;59.70;;;19.29;49.04;100854.16;4974422;28;20043;-78
2023/06/07 03:26:23;;;;;;;13.10;5.70;;;19.80;59.70;;;19.26;48.99;100856.53;4997270;28;20054;-77
2023/06/07 03:28:54;;;;;;;10.60;4.93;;;19.80;59.80;;;19.21;49.23;100851.09;4983578;28;20131;-77
2023/06/07 03:31:25;;;;;;;13.55;5.63;;;19.70;60.00;;;19.21;49.25;100857.31;4968914;28;20047;-77
2023/06/07 03:34:01;;;;;;;14.02;5.18;;;19.70;59.90;;;19.21;49.27;100851.09;4973376;28;20529;-78
2023/06/07 03:36:30;;;;;;;12.70;5.53;;;19.70;60.00;;;19.19;49.05;100851.38;4982484;28;20042;-77
2023/06/07 03:38:59;;;;;;;9.95;5.60;;;19.70;60.20;;;19.18;49.27;100857.00;4980116;28;20577;-78
2023/06/07 03:41:27;;;;;;;15.43;5.47;;;19.70;60.20;;;19.17;49.30;100858.09;4967694;28;20105;-77
2023/06/07 03:43:56;;;;;;;12.32;5.70;;;19.70;60.20;;;19.17;49.19;100860.81;4991672;28;20051;-77
2023/06/07 03:46:23;;;;;;;12.60;5.55;;;19.70;60.20;;;19.15;49.31;100860.25;4989416;28;20054;-77
2023/06/07 03:48:52;;;;;;;12.20;5.00;;;19.70;60.20;;;19.11;49.23;100853.72;4987929;28;20538;-77
2023/06/07 03:51:21;;;;;;;10.50;5.80;;;19.60;60.20;;;19.06;49.35;100857.22;4978842;28;20046;-80
2023/06/07 03:53:48;;;;;;;13.30;6.05;;;19.60;60.50;;;19.02;49.64;100853.38;4975445;28;20039;-78
2023/06/07 03:56:15;;;;;;;11.57;5.47;;;19.60;60.50;;;19.02;49.69;100865.00;4963858;28;20082;-78
2023/06/07 03:58:45;;;;;;;11.50;5.97;;;19.70;60.80;;;18.99;49.42;100859.31;4976731;28;20085;-79
2023/06/07 04:01:16;;;;;;;12.07;5.53;;;19.60;60.60;;;19.00;49.61;100859.06;4975720;28;20411;-79
2023/06/07 04:03:45;;;;;;;11.60;5.53;;;19.60;60.40;;;19.02;49.77;100851.50;4968153;28;20058;-79
2023/06/07 04:06:12;;;;;;;11.48;5.82;;;19.60;60.40;;;19.02;49.87;100861.50;4976968;28;20101;-78
2023/06/07 04:08:41;;;;;;;11.05;6.28;;;19.60;60.60;;;18.97;49.65;100856.84;4983180;28;20502;-78
2023/06/07 04:11:09;;;;;;;11.65;5.80;;;19.50;60.80;;;18.97;49.71;100856.84;4967795;28;20074;-78
2023/06/07 04:13:36;;;;;;;15.05;5.50;;;19.50;61.00;;;18.96;49.90;100863.34;4994889;28;20821;-78
2023/06/07 04:16:04;;;;;;;10.57;5.53;;;19.50;60.80;;;18.96;49.96;100857.94;4979122;28;20090;-79
2023/06/07 04:18:31;;;;;;;16.27;6.25;;;19.50;61.10;;;18.94;50.17;100857.38;4990232;28;20046;-78
2023/06/07 04:20:58;;;;;;;14.90;6.22;;;19.50;61.30;;;18.93;50.23;100863.03;4972404;28;20047;-78
2023/06/07 04:23:26;;;;;;;13.32;6.13;;;19.50;61.30;;;18.89;50.02;100854.66;4968039;28;20042;-78
2023/06/07 04:25:55;;;;;;;11.90;6.18;;;19.40;61.20;;;18.89;50.33;100856.53;4991974;28;20043;-79
2023/06/07 04:28:23;;;;;;;10.75;5.57;;;19.40;61.40;;;18.84;50.13;100861.88;4996955;28;20047;-78
2023/06/07 04:30:53;;;;;;;10.25;5.85;;;19.40;61.40;;;18.85;50.32;100858.94;4972197;28;20054;-78
2023/06/07 04:33:21;;;;;;;12.57;6.18;;;19.40;61.50;;;18.84;50.25;100864.56;4968180;28;20050;-78
2023/06/07 04:35:51;;;;;;;15.68;5.95;;;19.40;61.50;;;18.81;50.32;100873.22;4967727;28;20569;-79
2023/06/07 04:38:21;;;;;;;10.60;5.93;;;19.30;61.70;;;18.77;50.68;100868.31;4978378;28;20051;-78
2023/06/07 04:40:52;;;;;;;10.63;5.93;;;19.30;62.10;;;18.75;50.60;100869.66;4966471;28;20043;-79
2023/06/07 04:43:36;;;;;;;14.10;6.38;;;19.20;62.00;;;18.74;50.98;100862.63;4989141;28;20813;-80
2023/06/07 04:46:04;;;;;;;13.43;6.10;;;19.20;62.30;;;18.72;51.17;100872.84;4986614;28;20043;-78
2023/06/07 04:48:32;;;;;;;13.65;6.80;;;19.20;62.70;;;18.69;51.60;100873.34;4969946;28;20147;-79
2023/06/07 04:51:04;;;;;;;14.95;6.53;;;19.20;63.30;;;18.68;51.92;100874.38;4957450;28;20121;-79
2023/06/07 04:53:36;;;;;;;11.52;6.43;;;19.20;63.60;;;18.66;52.33;100868.44;4967681;28;20050;-78
2023/06/07 04:56:05;;;;;;;13.30;6.88;;;19.20;64.20;;;18.62;52.81;100870.81;4965818;28;20085;-79
2023/06/07 04:58:36;;;;;;;17.00;6.28;;;19.20;64.80;;;18.60;53.18;100870.28;4989918;28;20051;-79
2023/06/07 05:01:04;;;;;;;;;;;19.10;64.90;;;18.56;53.28;100869.16;4979490;28;20077;-78
2023/06/07 05:03:36;;;;;;;10.88;6.85;;;19.10;65.40;;;18.53;53.38;100873.16;4985713;28;19955;-79
2023/06/07 05:06:04;;;;;;;12.23;6.45;;;19.10;65.40;;;18.53;53.37;100875.88;4976595;28;20054;-79
2023/06/07 05:08:32;;;;;;;16.80;7.20;;;19.10;65.40;;;18.50;53.58;100873.69;4970165;28;20101;-79
2023/06/07 05:11:00;;;;;;;13.57;6.95;;;19.00;65.70;;;18.50;53.59;100879.09;4983525;28;20054;-79
2023/06/07 05:13:28;;;;;;;14.75;7.47;;;19.00;65.60;;;18.50;53.81;100880.97;4969748;28;20061;-79
2023/06/07 05:16:01;;;;;;;12.85;7.53;;;19.00;65.80;;;18.43;54.00;100891.16;4970607;28;20054;-79
2023/06/07 05:18:29;;;;;;;14.57;7.00;;;19.00;66.20;;;18.33;53.97;100889.16;4992886;28;20423;-79
2023/06/07 05:20:58;;;;;;;13.15;7.25;;;18.90;66.30;;;18.34;53.74;100893.47;4977882;28;20054;-79
2023/06/07 05:23:26;;;;;;;13.75;6.68;;;18.90;66.20;;;18.35;53.97;100892.44;4967225;28;20157;-79
2023/06/07 05:25:54;;;;;;;15.23;6.95;;;18.90;66.20;;;18.35;53.97;100889.72;4973273;28;20048;-79
2023/06/07 05:28:23;;;;;;;14.45;7.43;;;18.90;66.00;;;18.33;53.85;100889.16;4991135;28;20054;-79
2023/06/07 05:30:55;;;;;;;18.08;7.30;;;18.90;66.20;;;18.27;54.20;100890.16;4973968;28;20128;-79
2023/06/07 05:33:25;;;;;;;17.35;7.32;;;18.80;66.50;;;18.27;54.21;100890.16;4975770;28;20066;-79
2023/06/07 05:35:52;;;;;;;12.80;7.45;;;18.80;66.40;;;18.27;54.41;100887.47;4970166;28;20047;-79
2023/06/07 05:38:19;;;;;;;17.33;7.38;;;18.80;66.40;;;18.30;54.35;100891.53;4974470;28;20050;-79
2023/06/07 05:40:48;;;;;;;18.20;8.02;;;18.80;66.50;;;18.31;54.59;100890.47;4975610;28;20054;-79
2023/06/07 05:43:15;;;;;;;18.48;7.90;;;18.90;67.00;;;18.31;54.41;100896.69;4992528;28;20050;-78
2023/06/07 05:45:43;;;;;;;13.80;7.93;;;18.90;66.70;;;18.32;54.48;100897.50;4973052;28;20042;-78
2023/06/07 05:48:12;;;;;;;16.33;7.65;;;18.90;66.80;;;18.33;54.28;100902.66;4968037;28;20411;-79
2023/06/07 05:50:41;;;;;;;17.50;7.97;;;18.90;66.80;;;18.31;54.21;100896.69;4978112;28;20105;-79
2023/06/07 05:53:08;;;;;;;15.60;8.13;;;18.90;66.60;;;18.32;54.69;100903.72;4975131;28;20057;-79
2023/06/07 05:55:36;;;;;;;19.25;7.85;;;18.90;67.30;;;18.30;54.70;100907.72;4970107;28;20062;-79
2023/06/07 05:58:03;;;;;;;16.60;8.07;;;18.80;67.10;;;18.28;54.80;100897.19;4980460;28;20039;-79
2023/06/07 06:00:31;;;;;;;18.77;8.23;;;18.80;67.20;;;18.29;54.90;100893.41;4980221;28;20279;-79
2023/06/07 06:03:00;;;;;;;16.17;7.78;;;18.90;67.50;;;18.28;54.87;100894.50;4970459;28;20034;-79
2023/06/07 06:05:28;;;;;;;16.60;7.18;;;18.90;67.70;;;18.27;55.08;100895.56;4970326;28;20043;-79
2023/06/07 06:07:58;;;;;;;17.67;7.68;;;18.80;67.40;;;18.27;55.13;100898.25;4968996;28;20125;-79
2023/06/07 06:10:25;;;;;;;17.45;8.07;;;18.80;67.50;;;18.27;54.99;100903.66;4976783;28;20101;-79
2023/06/07 06:12:52;;;;;;;17.70;7.88;;;18.80;67.30;;;18.26;54.89;100904.75;4970281;28;20118;-79
2023/06/07 06:15:20;;;;;;;15.50;8.30;;;18.80;67.50;;;18.22;55.15;100909.00;5009147;22;20043;-85
2023/06/07 06:17:49;;;;;;;16.60;8.32;;;18.80;67.80;;;18.18;55.13;100907.88;4965326;28;20074;-85
2023/06/07 06:20:17;;;;;;;22.15;9.00;;;18.70;67.80;;;18.19;55.38;100909.50;4968449;28;20101;-86
2023/06/07 06:22:44;;;;;;;16.38;8.20;;;18.70;68.10;;;18.15;55.58;100900.25;4968253;28;20046;-84
2023/06/07 06:25:13;;;;;;;17.55;8.48;;;18.70;68.30;;;18.14;55.62;100909.44;4971474;28;20047;-88
2023/06/07 06:27:41;;;;;;;15.38;8.45;;;18.70;68.30;;;18.14;55.32;100920.22;4953944;28;20728;-86
2023/06/07 06:30:10;;;;;;;18.30;8.52;;;18.70;68.30;;;18.12;55.57;100915.09;4969439;28;20045;-85
2023/06/07 06:32:38;;;;;;;18.40;8.82;;;18.70;68.40;;;18.11;55.75;100920.75;4953526;28;20043;-85
2023/06/07 06:35:07;;;;;;;15.73;8.25;;;18.60;68.50;;;18.11;55.66;100918.84;4953137;28;20051;-84
2023/06/07 06:37:34;;;;;;;17.27;8.75;;;18.60;68.70;;;18.12;55.86;100915.09;4971481;28;20130;-85
2023/06/07 06:40:03;;;;;;;15.63;8.18;;;18.60;68.70;;;18.13;56.08;100929.41;4968576;28;20062;-85
2023/06/07 06:42:32;;;;;;;13.50;8.43;;;18.70;68.70;;;18.12;55.63;100925.06;4969751;28;20042;-87
2023/06/07 06:45:16;;;;;;;15.00;8.30;;;18.70;68.50;;;18.13;56.09;100929.41;4953011;28;20051;-85
2023/06/07 06:47:43;;;;;;;16.42;9.10;;;18.70;68.90;;;18.12;56.01;100935.88;4954969;28;20076;-85
2023/06/07 06:50:13;;;;;;;16.40;8.75;;;18.60;68.80;;;18.09;55.79;100939.88;4966677;28;20043;-85
2023/06/07 06:52:42;;;;;;;18.98;7.90;;;18.60;68.90;;;18.06;55.90;100940.38;4970216;28;20047;-87
2023/06/07 06:55:12;;;;;;;19.30;9.15;;;18.60;69.10;;;18.06;56.08;100942.28;4956240;28;20484;-83
2023/06/07 06:57:40;;;;;;;16.13;8.80;;;18.60;69.30;;;18.06;56.15;100936.88;4970534;28;20050;-78
2023/06/07 07:00:10;;;;;;;19.77;9.10;;;18.60;69.30;;;18.06;56.14;100947.66;4970517;28;20442;-85
2023/06/07 07:02:37;;;;;;;14.73;8.55;;;18.70;69.20;;;18.04;56.28;100955.19;4967432;28;20117;-82
2023/06/07 07:05:05;;;;;;;16.30;8.95;;;18.60;69.10;;;18.05;56.25;100956.81;4969176;28;20038;-83
2023/06/07 07:07:33;;;;;;;17.38;8.88;;;18.60;69.00;;;18.06;56.14;100958.47;4971415;28;20066;-84
2023/06/07 07:10:00;;;;;;;15.73;8.88;;;18.60;69.10;;;18.05;56.26;100964.91;4970094;28;20046;-85
2023/06/07 07:12:28;;;;;;;17.08;9.30;;;18.60;69.30;;;18.01;56.19;100957.31;4970105;28;20047;-83
2023/06/07 07:14:56;;;;;;;20.77;9.35;;;18.60;69.30;;;18.00;56.05;100961.06;4969930;28;20050;-85
2023/06/07 07:17:23;;;;;;;16.27;8.88;;;18.60;69.20;;;18.02;56.77;100963.53;4969910;28;20042;-83
2023/06/07 07:19:51;;;;;;;18.77;9.43;;;18.60;70.10;;;17.99;56.92;100954.03;4968783;28;20046;-85
2023/06/07 07:22:18;;;;;;;17.58;9.15;;;18.60;69.90;;;18.00;57.00;100954.84;4970784;28;20543;-81
2023/06/07 07:24:45;;;;;;;15.50;9.40;;;18.50;69.90;;;17.97;56.74;100964.28;4968901;28;20046;-85
2023/06/07 07:27:12;;;;;;;17.80;9.65;;;18.50;69.80;;;17.98;56.95;100962.41;4955779;28;20042;-83
2023/06/07 07:29:40;;;;;;;20.60;9.50;;;18.50;70.00;;;17.97;56.77;100958.06;4968931;28;20125;-83
2023/06/07 07:32:09;;;;;;;14.95;9.30;;;18.50;69.90;;;17.97;56.97;100966.16;4968545;28;20670;-85
2023/06/07 07:34:36;;;;;;;19.70;9.60;;;18.50;70.30;;;17.94;56.98;100967.47;4971618;28;20081;-84
2023/06/07 07:37:04;;;;;;;17.65;9.63;;;18.50;70.30;;;17.90;57.19;100969.03;4954947;28;20325;-85
2023/06/07 07:39:32;;;;;;;22.65;9.50;;;18.50;70.50;;;17.88;57.34;100979.25;4954168;28;20051;-83
2023/06/07 07:42:03;;;;;;;18.58;10.20;;;18.50;70.50;;;17.90;57.51;100985.22;4970375;28;20039;-84
2023/06/07 07:44:30;;;;;;;19.83;10.50;;;18.50;70.80;;;17.91;57.90;100983.31;4970442;28;20042;-84
2023/06/07 07:46:57;;;;;;;21.33;10.05;;;18.50;71.10;;;17.90;57.74;100979.00;4968792;28;20042;-83
2023/06/07 07:49:26;;;;;;;18.10;9.00;;;18.50;70.90;;;17.91;58.07;100980.63;4968466;28;20771;-85
2023/06/07 07:51:53;;;;;;;19.52;10.35;;;18.50;71.20;;;17.89;57.98;100986.28;4964247;28;20039;-83
2023/06/07 07:54:21;;;;;;;17.15;9.63;;;18.50;71.30;;;17.87;58.19;100979.50;4959024;28;20842;-83
2023/06/07 07:56:48;;;;;;;15.75;9.10;;;18.50;71.60;;;17.86;58.45;100986.78;4969450;28;20054;-84
2023/06/07 07:59:15;;;;;;;16.98;10.13;;;18.40;71.80;;;17.84;58.64;100978.09;4977604;28;20145;-83
2023/06/07 08:01:45;;;;;;;28.00;10.80;;;18.40;71.70;;;17.84;59.45;100991.59;4974385;28;20042;-83
2023/06/07 08:04:12;;;;;;;19.92;10.38;;;18.50;72.50;;;17.85;59.56;100982.44;4967352;28;20047;-82
2023/06/07 08:06:42;;;;;;;18.13;10.65;;;18.50;72.70;;;17.83;59.42;100976.47;4969381;28;20113;-83
2023/06/07 08:09:10;;;;;;;17.45;10.85;;;18.50;72.80;;;17.84;59.77;100980.81;4966685;28;20047;-84
2023/06/07 08:11:38;;;;;;;18.73;11.30;;;18.50;73.00;;;17.84;60.00;100970.00;4974051;28;20042;-83
2023/06/07 08:14:05;;;;;;;24.05;11.32;;;18.50;73.20;;;17.84;60.40;100967.31;4975939;28;20053;-84
2023/06/07 08:16:32;;;;;;;23.45;11.23;;;18.50;73.80;;;17.84;60.56;100961.91;4968558;28;20559;-84
2023/06/07 08:19:00;;;;;;;21.75;11.43;;;18.50;73.90;;;17.86;61.02;100954.41;4969359;28;20137;-84
2023/06/07 08:21:27;;;;;;;18.98;11.00;;;18.50;74.40;;;17.85;61.25;100952.75;4974110;28;20046;-83
2023/06/07 08:23:57;;;;;;;19.45;11.40;;;18.50;74.50;;;17.85;61.78;100954.63;4970391;28;20459;-82
2023/06/07 08:26:25;;;;;;;27.23;12.73;;;18.50;75.40;;;17.86;61.86;100954.41;4968722;28;20050;-83
2023/06/07 08:28:52;;;;;;;19.35;11.57;;;18.50;75.20;;;17.87;62.18;100961.44;4969572;28;20113;-82
2023/06/07 08:31:22;;;;;;;24.92;12.10;;;18.50;75.90;;;17.88;62.52;100959.56;4952139;28;20133;-84
2023/06/07 08:33:49;;;;;;;23.48;12.20;;;18.50;76.10;;;17.87;62.42;100949.81;4970854;28;20035;-82
2023/06/07 08:36:17;;;;;;;21.88;12.13;;;18.50;75.90;;;17.86;62.27;100949.03;4965683;28;20058;-82
2023/06/07 08:38:45;;;;;;;26.88;12.50;;;18.50;75.80;;;17.85;62.43;100952.75;4977876;28;20038;-82
2023/06/07 08:41:13;;;;;;;25.13;12.98;;;18.50;76.00;;;17.86;62.38;100969.75;4972007;28;20050;-83
2023/06/07 08:43:41;;;;;;;21.75;11.80;;;18.50;76.00;;;17.86;61.94;100970.59;4973260;28;20058;-85
2023/06/07 08:46:08;;;;;;;21.50;11.93;;;18.50;75.70;;;17.84;62.06;100972.72;4948383;28;20054;-83
2023/06/07 08:48:39;;;;;;;25.73;13.45;;;18.50;75.80;;;17.84;62.29;100974.59;4969656;28;20118;-82
2023/06/07 08:51:09;;;;;;;24.95;12.73;;;18.50;76.10;;;17.84;62.11;100980.81;4957212;28;20046;-83
2023/06/07 08:53:47;;;;;;;26.88;13.48;;;18.40;75.90;;;17.83;62.47;100983.75;4972666;28;20042;-82
2023/06/07 08:56:17;;;;;;;23.33;13.15;;;18.50;76.40;;;17.83;62.34;100981.88;4966975;28;20035;-83
2023/06/07 08:58:45;;;;;;;23.00;13.43;;;18.50;76.30;;;17.83;63.26;100989.97;4969883;28;20063;-82
2023/06/07 09:01:12;;;;;;;23.65;12.82;;;18.50;77.10;;;17.82;63.07;100985.66;4966607;28;20039;-81
2023/06/07 09:03:41;;;;;;;22.67;13.18;;;18.40;76.70;;;17.82;62.94;100988.34;4970187;28;20039;-84
2023/06/07 09:06:08;;;;;;;24.27;13.55;;;18.40;76.50;;;17.81;63.00;100991.28;4968306;28;20039;-82
2023/06/07 09:08:35;;;;;;;25.17;14.25;;;18.40;76.60;;;17.79;62.87;100999.63;4952503;28;20051;-81
2023/06/07 09:11:03;;;;;;;24.48;14.10;;;18.40;76.60;;;17.78;62.42;100999.88;4970785;28;20039;-82
2023/06/07 09:13:33;;;;;;;23.05;14.85;;;18.40;76.50;;;17.73;63.05;100997.91;4963239;28;20090;-82
2023/06/07 09:16:01;;;;;;;25.83;15.48;;;18.30;77.20;;;17.70;62.78;100996.47;4966891;28;20071;-83
2023/06/07 09:18:43;;;;;;;28.13;17.10;;;18.30;77.00;;;17.70;63.11;100998.34;4953371;28;20057;-82
2023/06/07 09:21:21;;;;;;;26.23;16.27;;;18.20;76.90;;;17.70;63.55;100999.19;4964478;28;20042;-82
2023/06/07 09:23:48;;;;;;;29.80;18.13;;;18.30;77.40;;;17.70;63.34;101006.47;4973815;28;20035;-82
2023/06/07 09:26:16;;;;;;;30.95;17.50;;;18.30;77.20;;;17.68;63.85;101000.50;4967993;28;20138;-81
2023/06/07 09:28:46;;;;;;;30.83;17.58;;;18.30;77.80;;;17.67;63.89;101001.56;4962021;28;20039;-82
2023/06/07 09:31:14;;;;;;;33.78;17.58;;;18.30;77.70;;;17.69;64.26;100996.72;4974140;28;20042;-80
2023/06/07 09:33:41;;;;;;;29.35;17.35;;;18.30;78.20;;;17.70;64.76;101001.06;4948526;28;20050;-81
2023/06/07 09:36:12;;;;;;;28.13;17.80;;;18.30;78.70;;;17.72;65.06;101001.66;4965850;28;20043;-81
2023/06/07 09:38:41;;;;;;;28.38;16.98;;;18.30;79.00;;;17.70;64.91;100998.34;4960318;28;20086;-81
2023/06/07 09:41:10;;;;;;;29.33;17.58;;;18.30;78.80;;;17.71;65.27;101000.84;4968540;28;20054;-82
2023/06/07 09:43:47;;;;;;;29.88;17.98;;;18.30;79.20;;;17.71;65.63;101005.38;4974236;28;20051;-81
2023/06/07 09:46:15;;;;;;;27.70;18.25;;;18.30;79.60;;;17.70;64.69;100999.19;4968613;28;20047;-83
2023/06/07 09:48:50;;;;;;;26.52;17.05;;;18.30;79.00;;;17.70;64.95;100988.38;4967886;28;20043;-81
2023/06/07 09:51:19;;;;;;;31.13;18.67;;;18.30;79.00;;;17.72;65.38;100988.16;4977893;28;20049;-81
2023/06/07 09:53:52;;;;;;;28.88;17.83;;;18.30;79.60;;;17.73;65.23;100993.34;4972903;28;20038;-81
2023/06/07 09:56:20;;;;;;;31.65;19.17;;;18.30;79.60;;;17.76;65.20;100997.41;4968465;28;20439;-81
2023/06/07 09:58:50;;;;;;;31.45;19.95;;;18.30;79.50;;;17.78;65.38;101002.56;4949744;28;20121;-84
2023/06/07 10:01:33;;;;;;;31.15;19.80;;;18.40;79.50;;;17.81;65.36;101005.56;4975374;28;20044;-81
2023/06/07 10:04:02;;;;;;;29.80;17.90;;;18.40;79.90;;;17.83;65.33;100998.06;4980913;28;20034;-83
2023/06/07 10:06:33;;;;;;;32.00;18.92;;;18.40;79.80;;;17.86;65.44;101005.69;4976579;28;20035;-84
2023/06/07 10:09:04;;;;;;;29.80;18.90;;;18.40;79.60;;;17.85;65.37;101005.91;4975547;28;20047;-86
2023/06/07 10:11:32;;;;;;;;;;;18.40;79.90;;;17.83;65.27;100994.56;4969063;28;20053;-84
2023/06/07 10:14:07;;;;;;;31.50;18.63;;;18.40;79.60;;;17.83;65.50;100987.28;4961516;28;20449;-85